Cedar Rapids, IA (52401)

10:36 AM CDT on July 27, 2016 (GMT -0500)
Downtown Cedar Rapids - KCRG | | Change Station

Elev 768 ft 41.98 °N, 91.66 °W | Updated 1 minute ago

Clear
Clear
83.1 °F
Feels Like 86 °F
N
0.9
Wind Variable Wind from ENE
Gusts 4.0 mph

Today
High -- | Low -- °F
--% Chance of Precip.
Yesterday
High -- | Low -- °F
Precip. -- in
Pressure 30.00 in
Visibility 10.0 miles
Clouds Clear
Heat Index 86 °F
Dew Point 67 °F
Humidity 59%
Rainfall 0.00 in
Snow Depth Not available.
5:55 AM 8:29 PM
Last Quarter, 42% visible
METAR KCID 271452Z 14003KT 10SM CLR 26/21 A3001 RMK AO2 SLP158 T02610211 50002
Pressure 30.00 in
Visibility 10.0 miles
Clouds Clear
Heat Index 86 °F
Dew Point 67 °F
Humidity 59%
Rainfall 0.00 in
Snow Depth Not available.
5:55 AM 8:29 PM
Last Quarter, 42% visible
METAR KCID 271452Z 14003KT 10SM CLR 26/21 A3001 RMK AO2 SLP158 T02610211 50002

10-Day Weather Forecast

Almanac

Astronomy

Jul. 27, 2016 Rise Set
Actual Time
Civil Twilight
Nautical Twilight
Astronomical Twilight
Moon
Length of Visible Light
Length of Day
Tomorrow will be .
, % of the Moon is Illuminated

Today's Extremes

State Highs State Lows

Community

WunderPhotos

Upload Photos

1,927,860 photos uploaded!

WunderBlog® & News

Nearby

Air Quality

  Air Quality AQ Index Pollutant
Not available.

Snow Depth

Station Depth Elevation

Earthquake Activity

City Distance Mag. Time & Date
Minimum magnitude displayed is 2.5.

Coastal Water Temperatures

Place Temperature

Stations

Nearby Weather Stations

Station Location Temp. Windchill Dew Point Humidity Wind Precip. Elev Updated Type
                   

Watches & Warnings

There are currently no watches in effect.